createdAt,value
2018-05-29T00:01:33.934Z,11.17
2018-05-29T00:04:01.826Z,10.10
2018-05-29T00:06:29.719Z,11.30
2018-05-29T00:08:57.700Z,11.13
2018-05-29T00:11:25.671Z,9.97
2018-05-29T00:13:53.555Z,10.83
2018-05-29T00:16:21.443Z,10.77
2018-05-29T00:18:49.431Z,10.03
2018-05-29T00:21:18.391Z,10.53
2018-05-29T00:23:46.312Z,10.77
2018-05-29T00:26:14.195Z,10.70
2018-05-29T00:28:42.088Z,13.67
2018-05-29T00:31:10.046Z,11.90
2018-05-29T00:33:37.942Z,10.50
2018-05-29T00:36:05.819Z,11.30
2018-05-29T00:38:33.815Z,10.87
2018-05-29T00:41:01.791Z,10.30
2018-05-29T00:43:29.680Z,11.07
2018-05-29T00:45:57.647Z,10.73
2018-05-29T00:48:25.543Z,11.37
2018-05-29T00:50:53.526Z,11.23
2018-05-29T00:53:21.420Z,11.13
2018-05-29T00:55:49.384Z,10.87
2018-05-29T00:58:17.275Z,11.17
2018-05-29T01:00:45.259Z,10.73
2018-05-29T01:03:13.250Z,11.17
2018-05-29T01:05:41.219Z,11.40
2018-05-29T01:08:09.104Z,10.50
2018-05-29T01:10:36.990Z,11.23
2018-05-29T01:13:04.868Z,11.00
2018-05-29T01:15:32.860Z,11.60
2018-05-29T01:18:00.840Z,11.30
2018-05-29T01:20:28.820Z,11.53
2018-05-29T01:22:56.707Z,10.73
2018-05-29T01:25:24.684Z,11.50
2018-05-29T01:27:52.573Z,12.27
2018-05-29T01:30:20.604Z,11.17
2018-05-29T01:32:48.548Z,10.50
2018-05-29T01:35:16.512Z,11.20
2018-05-29T01:37:44.413Z,11.43
2018-05-29T01:40:12.384Z,10.57
2018-05-29T01:42:40.271Z,12.17
2018-05-29T01:45:08.248Z,11.70
2018-05-29T01:47:36.188Z,11.50
2018-05-29T01:50:04.121Z,11.80
2018-05-29T01:52:32.091Z,11.33
2018-05-29T01:55:00.000Z,11.17
2018-05-29T01:57:27.974Z,11.60
2018-05-29T01:59:55.959Z,11.47
2018-05-29T02:02:23.851Z,11.63
2018-05-29T02:04:51.818Z,11.73
2018-05-29T02:07:19.699Z,11.20
2018-05-29T02:09:47.586Z,12.17
2018-05-29T02:12:15.575Z,11.60
2018-05-29T02:14:43.552Z,12.30
2018-05-29T02:17:11.528Z,10.50
2018-05-29T02:19:39.415Z,12.67
2018-05-29T02:22:07.300Z,11.60
2018-05-29T02:24:36.228Z,12.40
2018-05-29T02:27:04.284Z,11.80
2018-05-29T02:29:32.166Z,11.63
2018-05-29T02:32:00.048Z,11.50
2018-05-29T02:34:27.936Z,11.50
2018-05-29T02:36:55.911Z,12.13
2018-05-29T02:39:23.795Z,12.90
2018-05-29T02:41:51.687Z,11.93
2018-05-29T02:44:19.680Z,13.03
2018-05-29T02:46:47.647Z,12.17
2018-05-29T02:49:15.536Z,12.20
2018-05-29T02:51:43.524Z,13.20
2018-05-29T02:54:11.511Z,11.80
2018-05-29T02:56:39.471Z,12.77
2018-05-29T02:59:07.375Z,12.43
2018-05-29T03:01:35.344Z,12.27
2018-05-29T03:04:03.242Z,13.30
2018-05-29T03:06:31.212Z,13.17
2018-05-29T03:08:59.101Z,12.80
2018-05-29T03:11:27.080Z,13.00
2018-05-29T03:13:54.972Z,13.90
2018-05-29T03:16:22.972Z,12.67
2018-05-29T03:18:50.918Z,14.00
2018-05-29T03:21:18.815Z,13.40
2018-05-29T03:23:46.795Z,11.70
2018-05-29T03:26:14.701Z,13.83
2018-05-29T03:28:42.650Z,13.90
2018-05-29T03:31:11.591Z,13.27
2018-05-29T03:33:39.557Z,13.10
2018-05-29T03:36:07.532Z,14.03
2018-05-29T03:38:35.518Z,13.80
2018-05-29T03:41:03.413Z,13.80
2018-05-29T03:43:31.378Z,13.90
2018-05-29T03:45:59.267Z,14.27
2018-05-29T03:48:27.143Z,14.40
2018-05-29T03:50:55.028Z,15.07
2018-05-29T03:53:22.907Z,14.30
2018-05-29T03:55:50.820Z,14.33
2018-05-29T03:58:18.687Z,13.70
2018-05-29T04:00:46.584Z,14.43
2018-05-29T04:03:14.446Z,14.93
2018-05-29T04:05:42.351Z,13.63
2018-05-29T04:08:11.028Z,14.03
2018-05-29T04:10:38.995Z,13.90
2018-05-29T04:13:06.972Z,15.33
2018-05-29T04:15:34.952Z,13.50
2018-05-29T04:18:02.910Z,13.20
2018-05-29T04:20:30.950Z,14.07
2018-05-29T04:22:58.839Z,13.33
2018-05-29T04:25:26.812Z,14.50
2018-05-29T04:27:54.674Z,14.40
2018-05-29T04:30:22.575Z,13.80
2018-05-29T04:32:50.446Z,14.57
2018-05-29T04:35:18.340Z,14.60
2018-05-29T04:37:46.239Z,13.10
2018-05-29T04:40:14.244Z,15.17
2018-05-29T04:42:42.120Z,14.30
2018-05-29T04:45:09.996Z,14.07
2018-05-29T04:47:37.934Z,14.33
2018-05-29T04:50:05.818Z,14.63
2018-05-29T04:52:33.711Z,14.37
2018-05-29T04:55:01.591Z,14.90
2018-05-29T04:57:29.472Z,14.60
2018-05-29T04:59:57.350Z,14.57
2018-05-29T05:02:25.243Z,14.30
2018-05-29T05:04:53.234Z,14.73
2018-05-29T05:07:21.215Z,13.43
2018-05-29T05:09:49.195Z,14.03
2018-05-29T05:12:17.187Z,14.70
2018-05-29T05:14:45.165Z,13.83
2018-05-29T05:17:13.440Z,14.57
2018-05-29T05:19:41.323Z,15.37
2018-05-29T05:22:09.208Z,14.80
2018-05-29T05:24:37.082Z,14.30
2018-05-29T05:27:05.995Z,14.80
2018-05-29T05:29:33.901Z,15.77
2018-05-29T05:32:01.868Z,14.93
2018-05-29T05:34:29.743Z,14.00
2018-05-29T05:36:57.649Z,14.27
2018-05-29T05:39:25.607Z,13.70
2018-05-29T05:41:53.500Z,15.20
2018-05-29T05:44:21.491Z,15.00
2018-05-29T05:46:49.380Z,13.70
2018-05-29T05:49:17.358Z,14.33
2018-05-29T05:51:45.331Z,14.20
2018-05-29T05:54:13.502Z,14.60
2018-05-29T05:56:41.414Z,13.97
2018-05-29T05:59:09.380Z,15.87
2018-05-29T06:01:37.263Z,14.20
2018-05-29T06:04:05.160Z,13.87
2018-05-29T06:06:33.130Z,15.97
2018-05-29T06:09:01.019Z,14.30
2018-05-29T06:11:28.983Z,14.43
2018-05-29T06:13:56.908Z,13.80
2018-05-29T06:16:24.888Z,13.70
2018-05-29T06:18:52.853Z,13.30
2018-05-29T06:21:20.837Z,14.87
2018-05-29T06:23:48.810Z,14.50
2018-05-29T06:26:16.706Z,15.20
2018-05-29T06:28:44.693Z,14.47
2018-05-29T06:31:12.660Z,14.20
2018-05-29T06:33:40.547Z,14.27
2018-05-29T06:36:09.463Z,13.10
2018-05-29T06:38:37.495Z,13.73
2018-05-29T06:41:05.419Z,13.73
2018-05-29T06:43:33.328Z,14.00
2018-05-29T06:46:01.300Z,13.90
2018-05-29T06:48:29.281Z,13.80
2018-05-29T06:50:57.259Z,14.10
2018-05-29T06:53:25.239Z,13.47
2018-05-29T06:55:53.211Z,13.73
2018-05-29T06:58:21.167Z,13.20
2018-05-29T07:00:49.078Z,12.50
2018-05-29T07:03:16.977Z,13.80
2018-05-29T07:05:44.953Z,14.17
2018-05-29T07:08:12.952Z,13.23
2018-05-29T07:10:40.931Z,14.00
2018-05-29T07:13:08.909Z,13.37
2018-05-29T07:15:36.882Z,13.20
2018-05-29T07:18:04.788Z,12.93
2018-05-29T07:20:32.754Z,14.30
2018-05-29T07:23:00.674Z,14.03
2018-05-29T07:25:28.624Z,13.00
2018-05-29T07:27:56.496Z,12.60
2018-05-29T07:30:24.399Z,12.40
2018-05-29T07:32:52.379Z,12.67
2018-05-29T07:35:20.359Z,13.47
2018-05-29T07:37:48.339Z,12.40
2018-05-29T07:40:16.335Z,12.47
2018-05-29T07:42:44.316Z,12.33
2018-05-29T07:45:12.322Z,11.93
2018-05-29T07:47:40.276Z,12.47
2018-05-29T07:50:08.152Z,13.27
2018-05-29T07:52:36.040Z,12.20
2018-05-29T07:55:04.021Z,11.60
2018-05-29T07:57:31.900Z,11.70
2018-05-29T07:59:59.788Z,12.30
2018-05-29T08:02:27.772Z,13.30
2018-05-29T08:04:55.771Z,11.60
2018-05-29T08:07:23.757Z,11.70
2018-05-29T08:09:51.728Z,11.50
2018-05-29T08:12:19.708Z,11.20
2018-05-29T08:14:47.691Z,13.80
2018-05-29T08:17:15.665Z,11.13
2018-05-29T08:19:43.665Z,11.10
2018-05-29T08:22:11.639Z,12.20
2018-05-29T08:24:39.657Z,11.67
2018-05-29T08:27:07.616Z,10.50
2018-05-29T08:29:35.591Z,11.00
2018-05-29T08:32:03.476Z,9.90
2018-05-29T08:34:31.463Z,10.47
2018-05-29T08:36:59.438Z,10.03
2018-05-29T08:39:27.482Z,9.90
2018-05-29T08:41:55.416Z,9.60
2018-05-29T08:44:23.391Z,11.37
2018-05-29T08:46:51.296Z,10.90
2018-05-29T08:49:19.265Z,9.43
2018-05-29T08:51:47.152Z,9.33
2018-05-29T08:54:15.131Z,9.53
2018-05-29T08:56:43.123Z,9.70
2018-05-29T08:59:11.091Z,9.23
2018-05-29T09:01:38.997Z,8.93
2018-05-29T09:04:07.044Z,9.90
2018-05-29T09:06:34.945Z,10.97
2018-05-29T09:09:02.855Z,9.67
2018-05-29T09:11:30.820Z,9.50
2018-05-29T09:13:58.792Z,9.90
2018-05-29T09:16:26.785Z,9.70
2018-05-29T09:18:54.763Z,9.73
2018-05-29T09:21:22.651Z,9.40
2018-05-29T09:23:50.635Z,9.00
2018-05-29T09:26:18.611Z,8.27
2018-05-29T09:28:46.495Z,8.37
2018-05-29T09:31:14.474Z,8.83
2018-05-29T09:33:42.354Z,8.57
2018-05-29T09:36:10.237Z,8.20
2018-05-29T09:38:38.119Z,8.17
2018-05-29T09:41:06.012Z,8.80
2018-05-29T09:43:33.983Z,8.80
2018-05-29T09:46:01.924Z,9.07
2018-05-29T09:48:29.855Z,8.37
2018-05-29T09:50:57.858Z,8.37
2018-05-29T09:53:25.834Z,8.30
2018-05-29T09:55:53.819Z,7.60
2018-05-29T09:58:21.807Z,9.03
2018-05-29T10:00:49.788Z,9.00
2018-05-29T10:03:17.751Z,8.10
2018-05-29T10:05:45.747Z,8.80
2018-05-29T10:08:13.719Z,8.23
2018-05-29T10:10:41.618Z,8.60
2018-05-29T10:13:09.638Z,8.73
2018-05-29T10:15:37.572Z,8.20
2018-05-29T10:18:05.471Z,8.77
2018-05-29T10:20:33.440Z,9.30
2018-05-29T10:23:01.336Z,8.87
2018-05-29T10:25:29.322Z,9.40
2018-05-29T10:27:57.307Z,8.27
2018-05-29T10:30:25.278Z,8.57
2018-05-29T10:32:53.167Z,8.90
2018-05-29T10:35:21.153Z,8.63
2018-05-29T10:37:49.135Z,9.13
2018-05-29T10:40:17.111Z,8.70
2018-05-29T10:42:44.999Z,9.00
2018-05-29T10:45:13.008Z,9.10
2018-05-29T10:47:40.980Z,9.40
2018-05-29T10:50:08.978Z,9.43
2018-05-29T10:52:36.935Z,8.80
2018-05-29T10:55:04.934Z,9.20
2018-05-29T10:57:32.891Z,8.57
2018-05-29T11:00:00.780Z,9.10
2018-05-29T11:02:28.783Z,8.90
2018-05-29T11:04:56.744Z,9.63
2018-05-29T11:07:24.631Z,8.90
2018-05-29T11:09:52.613Z,9.30
2018-05-29T11:12:20.519Z,9.07
2018-05-29T11:14:49.455Z,8.47
2018-05-29T11:17:17.392Z,8.50
2018-05-29T11:19:45.379Z,8.70
2018-05-29T11:22:13.352Z,8.83
2018-05-29T11:24:41.240Z,8.00
2018-05-29T11:27:09.223Z,8.80
2018-05-29T11:29:37.212Z,8.47
2018-05-29T11:32:05.196Z,8.50
2018-05-29T11:34:33.180Z,8.10
2018-05-29T11:37:01.155Z,7.80
2018-05-29T11:39:29.040Z,8.17
2018-05-29T11:41:57.015Z,8.30
2018-05-29T11:44:24.921Z,8.30
2018-05-29T11:46:56.173Z,8.27
2018-05-29T11:49:24.154Z,8.30
2018-05-29T11:51:52.140Z,8.50
2018-05-29T11:54:20.139Z,8.00
2018-05-29T11:56:48.107Z,7.63
2018-05-29T11:59:16.091Z,7.93
2018-05-29T12:01:44.129Z,8.10
2018-05-29T12:04:12.056Z,7.90
2018-05-29T12:06:40.195Z,7.47
2018-05-29T12:09:08.144Z,7.90
2018-05-29T12:11:36.104Z,7.17
2018-05-29T12:14:03.996Z,7.50
2018-05-29T12:16:31.983Z,7.70
2018-05-29T12:18:59.962Z,8.37
2018-05-29T12:21:27.943Z,7.43
2018-05-29T12:23:55.844Z,7.80
2018-05-29T12:26:23.815Z,7.50
2018-05-29T12:28:51.802Z,7.93
2018-05-29T12:31:19.780Z,7.93
2018-05-29T12:33:47.659Z,7.00
2018-05-29T12:36:15.640Z,7.03
2018-05-29T12:38:43.527Z,6.83
2018-05-29T12:41:11.511Z,7.10
2018-05-29T12:43:39.498Z,7.30
2018-05-29T12:46:07.514Z,6.77
2018-05-29T12:48:35.466Z,6.40
2018-05-29T12:51:03.439Z,6.20
2018-05-29T12:53:31.344Z,6.50
2018-05-29T12:55:59.319Z,6.53
2018-05-29T12:58:27.309Z,6.87
2018-05-29T13:00:55.274Z,6.67
2018-05-29T13:03:23.171Z,6.63
2018-05-29T13:05:51.163Z,7.10
2018-05-29T13:08:20.141Z,7.13
2018-05-29T13:10:48.055Z,6.30
2018-05-29T13:13:16.044Z,6.80
2018-05-29T13:15:47.036Z,5.73
2018-05-29T13:18:14.962Z,5.93
2018-05-29T13:20:42.947Z,6.13
2018-05-29T13:23:10.931Z,6.23
2018-05-29T13:25:39.922Z,6.00
2018-05-29T13:28:07.839Z,6.93
2018-05-29T13:30:35.820Z,6.30
2018-05-29T13:33:03.783Z,5.73
2018-05-29T13:35:31.684Z,5.73
2018-05-29T13:37:59.643Z,5.57
2018-05-29T13:40:27.543Z,6.37
2018-05-29T13:42:55.523Z,5.30
2018-05-29T13:45:23.500Z,5.63
2018-05-29T13:47:51.380Z,5.13
2018-05-29T13:50:19.271Z,5.00
2018-05-29T13:52:47.266Z,5.33
2018-05-29T13:55:15.244Z,5.40
2018-05-29T13:57:43.216Z,5.20
2018-05-29T14:00:11.204Z,5.20
2018-05-29T14:02:39.187Z,4.87
2018-05-29T14:05:07.178Z,4.53
2018-05-29T14:07:35.162Z,3.60
2018-05-29T14:10:03.143Z,4.30
2018-05-29T14:12:31.119Z,3.60
2018-05-29T14:14:59.003Z,3.60
2018-05-29T14:17:26.992Z,3.90
2018-05-29T14:19:54.979Z,3.93
2018-05-29T14:22:22.959Z,3.93
2018-05-29T14:24:50.947Z,4.30
2018-05-29T14:27:19.035Z,4.10
2018-05-29T14:29:47.111Z,3.73
2018-05-29T14:32:15.079Z,3.63
2018-05-29T14:34:43.045Z,3.70
2018-05-29T14:37:11.021Z,4.60
2018-05-29T14:39:38.976Z,4.23
2018-05-29T14:42:08.855Z,3.80
2018-05-29T14:44:37.178Z,4.27
2018-05-29T14:47:05.421Z,4.43
2018-05-29T14:49:33.605Z,4.97
2018-05-29T14:52:01.520Z,4.47
2018-05-29T14:54:29.392Z,4.40
2018-05-29T14:56:57.307Z,3.97
2018-05-29T14:59:25.391Z,4.47
2018-05-29T15:01:53.376Z,5.20
2018-05-29T15:04:21.368Z,4.73
2018-05-29T15:06:49.355Z,4.60
2018-05-29T15:09:17.319Z,4.47
2018-05-29T15:11:45.210Z,4.50
2018-05-29T15:14:13.183Z,5.30
2018-05-29T15:16:41.172Z,4.90
2018-05-29T15:19:09.162Z,5.07
2018-05-29T15:21:37.139Z,4.40
2018-05-29T15:24:05.020Z,5.13
2018-05-29T15:26:33.015Z,4.60
2018-05-29T15:29:00.984Z,5.27
2018-05-29T15:31:28.870Z,5.30
2018-05-29T15:33:57.780Z,4.37
2018-05-29T15:36:25.773Z,4.53
2018-05-29T15:38:53.739Z,4.13
2018-05-29T15:41:21.649Z,4.80
2018-05-29T15:43:49.607Z,4.37
2018-05-29T15:46:17.493Z,4.70
2018-05-29T15:48:45.484Z,4.43
2018-05-29T15:51:13.464Z,3.83
2018-05-29T15:53:41.465Z,3.53
2018-05-29T15:56:09.443Z,4.23
2018-05-29T15:58:37.427Z,3.90
2018-05-29T16:01:05.432Z,4.30
2018-05-29T16:03:33.400Z,4.63
2018-05-29T16:06:01.378Z,4.70
2018-05-29T16:08:29.355Z,4.60
2018-05-29T16:10:57.339Z,4.37
2018-05-29T16:13:25.320Z,4.60
2018-05-29T16:15:53.296Z,4.10
2018-05-29T16:18:21.224Z,4.37
2018-05-29T16:20:49.180Z,4.73
2018-05-29T16:23:17.161Z,4.33
2018-05-29T16:25:45.199Z,5.00
2018-05-29T16:28:13.140Z,4.50
2018-05-29T16:30:41.100Z,4.70
2018-05-29T16:33:08.999Z,5.50
2018-05-29T16:35:36.969Z,4.97
2018-05-29T16:38:04.947Z,4.50
2018-05-29T16:40:32.954Z,4.73
2018-05-29T16:43:00.925Z,6.13
2018-05-29T16:45:28.911Z,4.77
2018-05-29T16:47:56.901Z,5.33
2018-05-29T16:50:24.884Z,5.87
2018-05-29T16:52:52.871Z,6.43
2018-05-29T16:55:20.904Z,5.80
2018-05-29T16:57:48.842Z,5.10
2018-05-29T17:00:16.906Z,5.33
2018-05-29T17:02:44.821Z,6.07
2018-05-29T17:05:12.776Z,5.20
2018-05-29T17:07:40.665Z,5.53
2018-05-29T17:10:08.656Z,6.80
2018-05-29T17:12:36.632Z,7.20
2018-05-29T17:15:04.636Z,6.20
2018-05-29T17:17:32.595Z,5.40
2018-05-29T17:20:00.501Z,6.20
2018-05-29T17:22:28.454Z,5.97
2018-05-29T17:24:56.356Z,6.10
2018-05-29T17:27:24.327Z,6.80
2018-05-29T17:29:52.328Z,6.00
2018-05-29T17:32:20.307Z,6.20
2018-05-29T17:34:49.168Z,5.97
2018-05-29T17:37:17.207Z,6.67
2018-05-29T17:39:45.192Z,6.20
2018-05-29T17:42:14.215Z,6.20
2018-05-29T17:44:42.217Z,6.20
2018-05-29T17:47:10.645Z,6.10
2018-05-29T17:49:39.493Z,5.63
2018-05-29T17:52:07.506Z,6.17
2018-05-29T17:54:35.630Z,5.83
2018-05-29T17:57:04.399Z,5.63
2018-05-29T17:59:33.165Z,5.90
2018-05-29T18:02:01.938Z,6.00
2018-05-29T18:04:31.238Z,5.83
2018-05-29T18:06:59.596Z,5.70
2018-05-29T18:09:27.852Z,5.40
2018-05-29T18:11:55.831Z,5.80
2018-05-29T18:14:24.297Z,6.30
2018-05-29T18:16:54.550Z,5.60
2018-05-29T18:19:22.931Z,6.80
2018-05-29T18:21:50.843Z,6.33
2018-05-29T18:24:19.464Z,5.67
2018-05-29T18:26:47.505Z,5.50
2018-05-29T18:29:15.524Z,5.80
2018-05-29T18:31:43.818Z,6.40
2018-05-29T18:34:12.137Z,6.30
2018-05-29T18:36:40.087Z,6.10
2018-05-29T18:39:08.895Z,5.80
2018-05-29T18:41:40.297Z,7.03
2018-05-29T18:44:08.282Z,6.33
2018-05-29T18:46:36.301Z,6.37
2018-05-29T18:49:04.240Z,6.27
2018-05-29T18:51:32.188Z,6.97
2018-05-29T18:54:00.163Z,6.50
2018-05-29T18:56:28.063Z,6.90
2018-05-29T18:58:56.030Z,7.23
2018-05-29T19:01:23.913Z,8.57
2018-05-29T19:03:52.863Z,7.50
2018-05-29T19:06:20.747Z,7.00
2018-05-29T19:08:48.689Z,7.67
2018-05-29T19:11:16.630Z,6.87
2018-05-29T19:13:44.639Z,6.77
2018-05-29T19:16:12.543Z,7.43
2018-05-29T19:18:40.435Z,7.10
2018-05-29T19:21:08.307Z,6.90
2018-05-29T19:23:36.196Z,6.40
2018-05-29T19:26:04.091Z,6.57
2018-05-29T19:28:32.055Z,6.00
2018-05-29T19:31:00.115Z,6.67
2018-05-29T19:33:28.013Z,6.63
2018-05-29T19:35:55.903Z,6.97
2018-05-29T19:38:23.880Z,6.83
2018-05-29T19:40:51.772Z,6.00
2018-05-29T19:43:19.657Z,6.10
2018-05-29T19:45:47.556Z,6.13
2018-05-29T19:48:15.430Z,6.40
2018-05-29T19:50:43.303Z,6.33
2018-05-29T19:53:11.185Z,5.87
2018-05-29T19:55:39.071Z,7.30
2018-05-29T19:58:06.954Z,5.73
2018-05-29T20:00:34.915Z,6.33
2018-05-29T20:03:02.921Z,5.63
2018-05-29T20:05:30.796Z,6.20
2018-05-29T20:07:58.680Z,5.37
2018-05-29T20:10:26.604Z,5.90
2018-05-29T20:12:54.463Z,6.50
2018-05-29T20:15:22.343Z,7.27
2018-05-29T20:17:50.262Z,6.33
2018-05-29T20:20:18.165Z,6.93
2018-05-29T20:22:46.089Z,6.90
2018-05-29T20:25:14.064Z,6.70
2018-05-29T20:27:42.039Z,7.23
2018-05-29T20:30:10.016Z,7.60
2018-05-29T20:32:37.998Z,7.00
2018-05-29T20:35:05.987Z,6.50
2018-05-29T20:37:33.963Z,7.10
2018-05-29T20:40:01.987Z,6.70
2018-05-29T20:42:29.944Z,7.10
2018-05-29T20:44:57.918Z,7.00
2018-05-29T20:47:26.840Z,7.30
2018-05-29T20:49:54.816Z,6.93
2018-05-29T20:52:22.788Z,6.50
2018-05-29T20:54:50.717Z,6.83
2018-05-29T20:57:18.673Z,7.00
2018-05-29T20:59:46.648Z,7.33
2018-05-29T21:02:14.755Z,7.13
2018-05-29T21:04:44.779Z,7.00
2018-05-29T21:07:12.735Z,6.87
2018-05-29T21:09:40.640Z,7.30
2018-05-29T21:12:08.611Z,6.20
2018-05-29T21:14:36.591Z,7.20
2018-05-29T21:17:04.567Z,7.00
2018-05-29T21:19:33.727Z,7.80
2018-05-29T21:22:01.998Z,6.57
2018-05-29T21:24:30.894Z,7.13
2018-05-29T21:26:58.872Z,6.40
2018-05-29T21:29:26.770Z,7.50
2018-05-29T21:31:54.743Z,6.80
2018-05-29T21:34:22.719Z,7.13
2018-05-29T21:36:51.106Z,7.43
2018-05-29T21:39:19.008Z,6.90
2018-05-29T21:41:46.975Z,7.20
2018-05-29T21:44:14.856Z,6.73
2018-05-29T21:46:42.811Z,6.73
2018-05-29T21:49:10.728Z,6.57
2018-05-29T21:51:38.606Z,8.20
2018-05-29T21:54:07.536Z,7.67
2018-05-29T21:56:35.512Z,7.83
2018-05-29T21:59:03.475Z,7.07
2018-05-29T22:01:31.387Z,7.90
2018-05-29T22:04:02.391Z,7.13
2018-05-29T22:06:30.312Z,8.10
2018-05-29T22:08:58.274Z,7.60
2018-05-29T22:11:26.175Z,7.13
2018-05-29T22:13:54.148Z,9.67
2018-05-29T22:16:22.052Z,8.13
2018-05-29T22:18:50.012Z,8.10
2018-05-29T22:21:18.980Z,7.40
2018-05-29T22:23:46.916Z,8.83
2018-05-29T22:26:14.911Z,8.40
2018-05-29T22:28:42.872Z,8.10
2018-05-29T22:31:10.762Z,8.00
2018-05-29T22:33:38.731Z,6.90
2018-05-29T22:36:06.635Z,7.00
2018-05-29T22:38:34.607Z,7.90
2018-05-29T22:41:02.496Z,7.70
2018-05-29T22:43:32.424Z,8.90
2018-05-29T22:46:00.415Z,8.10
2018-05-29T22:48:28.383Z,10.07
2018-05-29T22:50:56.275Z,11.83
2018-05-29T22:53:24.151Z,11.40
2018-05-29T22:55:52.048Z,12.37
2018-05-29T22:58:20.014Z,12.43
2018-05-29T23:00:47.914Z,13.33
2018-05-29T23:03:15.807Z,11.30
2018-05-29T23:05:43.863Z,11.87
2018-05-29T23:08:11.749Z,10.50
2018-05-29T23:10:39.732Z,11.60
2018-05-29T23:13:07.611Z,11.10
2018-05-29T23:15:35.495Z,11.57
2018-05-29T23:18:03.496Z,11.40
2018-05-29T23:20:31.451Z,11.67
2018-05-29T23:22:59.342Z,11.30
2018-05-29T23:25:27.223Z,12.30
2018-05-29T23:27:55.109Z,13.45
2018-05-29T23:30:23.092Z,13.47
2018-05-29T23:32:51.013Z,14.50
2018-05-29T23:35:19.067Z,15.10
2018-05-29T23:37:47.156Z,14.93
2018-05-29T23:40:15.222Z,13.77
2018-05-29T23:42:43.224Z,14.53
2018-05-29T23:45:11.299Z,16.00
2018-05-29T23:47:39.392Z,15.17
2018-05-29T23:50:07.478Z,14.83
2018-05-29T23:52:35.581Z,14.60
2018-05-29T23:55:03.638Z,13.67
2018-05-29T23:57:31.630Z,13.80
2018-05-29T23:59:59.711Z,14.97
